Terminal Aerodrome Forecast
Issued by NWS

Home | Current Version | Previous Version | Text Only | Print | Product List | Glossary On
Versions: 1 2 3 4 5 6 7 8 9 10 11 12 13 14 15 16
000
FTUS45 KLKN 251720
TAFTPH
TAF
KTPH 251720Z 2518/2618 36006KT P6SM VCSH SCT060 BKN100
     FM252000 32012G22KT P6SM -SHRA VCTS SCT060CB BKN100
     FM260300 35015KT P6SM -SHRA BKN060 BKN100
     FM260600 33013KT P6SM SCT060 SCT120=

USA.gov is the U.S. government's official web portal to all federal, state and local government web resources and services.